Time;durP1;ratioP1;P1;durP2;ratioP2;P2;SDS_P1;SDS_P2;PMS_P1;PMS_P2;Temp;Humidity;BMP_temperature;BMP_pressure;BME280_temperature;BME280_humidity;BME280_pressure;Samples;Min_cycle;Max_cycle;Signal;HPM_P1;HPM_P2
2022/04/20 00:00:03;;;;;;;318.23;104.03;;;;;;;5.46;82.31;99523.16;343224;28;3517;-72
2022/04/20 00:00:14;;;;;;;320.97;104.87;;;;;;;5.47;82.67;99524.88;342918;28;1866;-72
2022/04/20 00:00:24;;;;;;;319.15;103.10;;;;;;;5.49;82.42;99527.44;339463;29;3257;-72
2022/04/20 00:00:35;;;;;;;319.95;103.97;;;;;;;5.46;82.83;99517.13;340931;29;1193;-73
2022/04/20 00:00:47;;;;;;;316.40;101.80;;;;;;;5.43;82.48;99518.03;342308;28;1271;-73
2022/04/20 00:00:58;;;;;;;315.73;102.00;;;;;;;5.44;82.88;99519.75;342680;28;1418;-73
2022/04/20 00:01:08;;;;;;;315.50;101.27;;;;;;;5.48;82.78;99525.72;341690;28;922;-72
2022/04/20 00:01:19;;;;;;;316.25;101.43;;;;;;;5.48;82.67;99520.53;341210;29;881;-72
2022/04/20 00:01:29;;;;;;;316.87;102.17;;;;;;;5.49;82.90;99523.09;340972;28;1575;-72
2022/04/20 00:01:42;;;;;;;318.48;104.20;;;;;;;5.49;82.56;99523.09;340999;29;1266;-73
2022/04/20 00:01:52;;;;;;;318.48;104.28;;;;;;;5.47;82.79;99524.00;342420;28;816;-73
2022/04/20 00:02:03;;;;;;;316.52;101.68;;;;;;;5.49;82.51;99524.84;340952;28;1252;-73
2022/04/20 00:02:13;;;;;;;316.80;101.73;;;;;;;5.50;82.61;99523.94;340886;28;1983;-73
2022/04/20 00:02:24;;;;;;;317.70;103.28;;;;;;;5.47;82.28;99530.06;340930;29;905;-73
2022/04/20 00:02:34;;;;;;;319.00;104.20;;;;;;;5.44;82.84;99526.69;341109;29;889;-73
2022/04/20 00:02:45;;;;;;;318.95;103.70;;;;;;;5.44;82.73;99519.75;341095;29;945;-73
2022/04/20 00:02:55;;;;;;;319.40;102.70;;;;;;;5.42;82.91;99526.72;342339;28;2579;-72
2022/04/20 00:03:05;;;;;;;318.67;101.95;;;;;;;5.44;82.98;99524.09;343286;28;857;-72
2022/04/20 00:03:16;;;;;;;317.50;101.33;;;;;;;5.44;82.71;99524.94;341716;28;1608;-72
2022/04/20 00:03:26;;;;;;;315.30;100.47;;;;;;;5.43;82.64;99522.38;343306;28;1193;-72
2022/04/20 00:03:38;;;;;;;315.63;101.18;;;;;;;5.43;82.75;99523.22;342766;28;894;-72
2022/04/20 00:03:49;;;;;;;316.73;101.75;;;;;;;5.42;82.64;99521.53;342827;28;1081;-72
2022/04/20 00:03:59;;;;;;;317.30;101.27;;;;;;;5.38;83.04;99519.88;342473;28;1332;-72
2022/04/20 00:04:11;;;;;;;315.90;100.97;;;;;;;5.37;83.03;99527.69;343648;28;1420;-72
2022/04/20 00:04:21;;;;;;;315.42;101.08;;;;;;;5.36;83.00;99524.25;345048;28;981;-72
2022/04/20 00:04:31;;;;;;;315.90;102.20;;;;;;;5.31;83.07;99526.06;342344;28;1204;-72
2022/04/20 00:04:42;;;;;;;318.00;103.13;;;;;;;5.30;83.16;99526.97;342306;28;942;-72
2022/04/20 00:04:55;;;;;;;317.23;102.57;;;;;;;5.30;83.48;99533.00;342148;28;1587;-72
2022/04/20 00:05:05;;;;;;;316.27;102.57;;;;;;;5.31;83.04;99529.53;343577;28;1343;-72
2022/04/20 00:05:16;;;;;;;316.25;102.70;;;;;;;5.31;83.12;99528.66;343812;28;842;-72
2022/04/20 00:05:26;;;;;;;318.07;102.37;;;;;;;5.27;83.43;99529.63;343764;28;804;-72
2022/04/20 00:05:37;;;;;;;319.35;103.43;;;;;;;5.29;83.54;99530.44;341043;29;1067;-72
2022/04/20 00:05:47;;;;;;;317.33;102.70;;;;;;;5.28;83.08;99524.41;345007;28;1364;-72
2022/04/20 00:05:58;;;;;;;318.17;104.03;;;;;;;5.29;83.52;99526.09;346410;28;907;-73
2022/04/20 00:06:08;;;;;;;318.50;104.27;;;;;;;5.29;83.42;99530.44;343774;28;1293;-72
2022/04/20 00:06:18;;;;;;;321.08;106.25;;;;;;;5.30;83.60;99525.22;345798;28;1347;-72
2022/04/20 00:06:30;;;;;;;320.97;107.67;;;;;;;5.32;83.48;99520.84;344866;28;1511;-72
2022/04/20 00:06:40;;;;;;;321.65;109.05;;;;;;;5.33;83.56;99526.91;342401;28;837;-72
2022/04/20 00:06:51;;;;;;;321.33;108.43;;;;;;;5.31;83.35;99524.34;343631;28;856;-73
2022/04/20 00:07:02;;;;;;;320.88;107.82;;;;;;;5.32;83.44;99520.00;339666;29;1973;-73
2022/04/20 00:07:12;;;;;;;318.20;105.35;;;;;;;5.34;83.15;99523.41;341632;28;1532;-72
2022/04/20 00:07:22;;;;;;;316.37;103.50;;;;;;;5.34;83.20;99528.59;342601;28;1444;-72
2022/04/20 00:07:36;;;;;;;316.37;103.07;;;;;;;5.31;83.06;99518.28;344939;28;1207;-72
2022/04/20 00:07:46;;;;;;;318.38;105.13;;;;;;;5.29;82.85;99527.84;341543;28;1063;-72
2022/04/20 00:07:56;;;;;;;319.13;104.83;;;;;;;5.26;83.22;99531.34;340186;28;1157;-73
2022/04/20 00:08:07;;;;;;;318.15;102.72;;;;;;;5.28;83.23;99526.13;339479;29;1584;-72
2022/04/20 00:08:17;;;;;;;317.87;101.20;;;;;;;5.30;83.09;99526.97;340086;29;896;-72
2022/04/20 00:08:29;;;;;;;319.95;103.75;;;;;;;5.29;83.22;99525.25;339727;29;1123;-72
2022/04/20 00:08:39;;;;;;;319.60;104.88;;;;;;;5.29;83.06;99526.09;339820;29;1289;-72
2022/04/20 00:08:50;;;;;;;317.70;104.60;;;;;;;5.29;83.49;99528.69;341199;29;885;-73
2022/04/20 00:09:00;;;;;;;316.60;103.80;;;;;;;5.31;83.14;99523.47;344034;28;3501;-71
2022/04/20 00:09:10;;;;;;;318.10;104.25;;;;;;;5.32;83.15;99532.97;342725;28;4809;-72
2022/04/20 00:09:21;;;;;;;320.13;105.77;;;;;;;5.33;83.29;99526.91;343666;28;947;-73
2022/04/20 00:09:31;;;;;;;321.38;106.15;;;;;;;5.35;83.06;99525.97;341036;28;1225;-73
2022/04/20 00:09:42;;;;;;;322.23;107.33;;;;;;;5.33;83.11;99526.91;345703;28;3775;-73
2022/04/20 00:09:53;;;;;;;321.45;106.60;;;;;;;5.35;83.02;99528.56;342376;28;1658;-72
2022/04/20 00:10:04;;;;;;;323.95;107.43;;;;;;;5.35;82.73;99531.16;343673;28;1283;-72
2022/04/20 00:10:15;;;;;;;323.65;107.32;;;;;;;5.35;83.03;99525.97;345013;28;919;-72
2022/04/20 00:10:26;;;;;;;322.42;106.97;;;;;;;5.35;83.05;99525.13;343686;28;825;-71
2022/04/20 00:10:36;;;;;;;320.73;107.63;;;;;;;5.34;82.92;99526.00;343552;28;1606;-72
2022/04/20 00:10:46;;;;;;;322.47;108.13;;;;;;;5.37;82.92;99527.69;340823;28;1433;-72
2022/04/20 00:10:57;;;;;;;322.20;107.78;;;;;;;5.37;82.83;99528.53;343683;28;1232;-72
2022/04/20 00:11:10;;;;;;;321.03;106.47;;;;;;;5.37;82.71;99523.34;343680;28;1252;-72
2022/04/20 00:11:21;;;;;;;319.30;105.93;;;;;;;5.37;82.98;99527.69;339650;28;1432;-72
2022/04/20 00:11:31;;;;;;;320.60;107.20;;;;;;;5.38;83.12;99526.81;342308;28;1313;-72
2022/04/20 00:11:41;;;;;;;322.67;107.07;;;;;;;5.40;83.00;99527.63;343720;28;1252;-72
2022/04/20 00:11:52;;;;;;;324.03;108.27;;;;;;;5.37;83.04;99523.34;341068;29;1433;-72
2022/04/20 00:12:02;;;;;;;324.50;107.82;;;;;;;5.39;82.87;99531.97;340894;29;1295;-72
2022/04/20 00:12:13;;;;;;;323.40;106.77;;;;;;;5.36;83.00;99524.25;342851;28;2113;-72
2022/04/20 00:12:23;;;;;;;322.52;105.65;;;;;;;5.38;83.04;99524.22;339478;29;1933;-72
2022/04/20 00:12:34;;;;;;;319.90;105.00;;;;;;;5.38;83.08;99525.06;340566;28;1869;-72
2022/04/20 00:12:44;;;;;;;319.85;106.75;;;;;;;5.37;83.00;99528.53;342289;28;1244;-72
2022/04/20 00:12:54;;;;;;;321.53;108.07;;;;;;;5.38;83.20;99526.81;342378;28;920;-72
2022/04/20 00:13:05;;;;;;;321.67;107.75;;;;;;;5.36;82.96;99521.66;342433;28;1008;-72
2022/04/20 00:13:15;;;;;;;322.87;108.63;;;;;;;5.39;83.16;99526.78;340338;29;873;-72
2022/04/20 00:13:26;;;;;;;320.77;107.20;;;;;;;5.38;83.08;99519.88;345147;28;927;-72
2022/04/20 00:13:36;;;;;;;321.97;107.47;;;;;;;5.35;83.07;99525.13;346273;28;1088;-72
2022/04/20 00:13:46;;;;;;;321.93;106.10;;;;;;;5.35;83.45;99525.97;342353;28;933;-72
2022/04/20 00:13:57;;;;;;;321.30;105.77;;;;;;;5.33;83.23;99524.31;343778;28;1436;-72
2022/04/20 00:14:07;;;;;;;320.07;104.90;;;;;;;5.34;83.29;99526.00;345476;28;1455;-72
2022/04/20 00:14:18;;;;;;;320.63;105.10;;;;;;;5.34;83.10;99528.59;341983;28;1012;-72
2022/04/20 00:14:28;;;;;;;322.30;106.77;;;;;;;5.33;83.34;99526.91;344913;28;1205;-72
2022/04/20 00:14:38;;;;;;;321.83;107.80;;;;;;;5.33;83.12;99521.72;346197;28;1075;-72
2022/04/20 00:14:49;;;;;;;321.40;108.13;;;;;;;5.34;83.15;99518.22;343530;28;1196;-72
2022/04/20 00:14:59;;;;;;;319.40;105.72;;;;;;;5.31;83.40;99528.66;340970;28;1379;-72
2022/04/20 00:15:09;;;;;;;320.17;105.10;;;;;;;5.31;83.29;99526.94;342340;28;1338;-72
2022/04/20 00:15:20;;;;;;;319.57;105.23;;;;;;;5.30;83.39;99527.81;342363;28;877;-72
2022/04/20 00:15:30;;;;;;;319.97;106.47;;;;;;;5.30;83.15;99521.78;342212;28;1436;-72
2022/04/20 00:15:41;;;;;;;320.80;106.87;;;;;;;5.33;83.32;99526.91;343280;28;1476;-72
2022/04/20 00:15:51;;;;;;;321.70;107.27;;;;;;;5.32;83.44;99525.19;342368;28;925;-72
2022/04/20 00:16:02;;;;;;;321.43;106.37;;;;;;;5.30;83.42;99525.22;340971;28;1323;-72
2022/04/20 00:16:12;;;;;;;321.02;106.15;;;;;;;5.32;83.45;99525.19;339860;29;2052;-72
2022/04/20 00:16:22;;;;;;;319.83;104.80;;;;;;;5.31;83.60;99533.88;339596;29;1580;-72
2022/04/20 00:16:33;;;;;;;319.33;105.00;;;;;;;5.27;83.56;99527.03;341109;29;921;-72
2022/04/20 00:16:43;;;;;;;318.27;104.93;;;;;;;5.28;83.43;99520.94;342183;28;1963;-72
2022/04/20 00:16:54;;;;;;;320.27;107.17;;;;;;;5.29;83.57;99525.25;339736;28;1473;-72
2022/04/20 00:17:04;;;;;;;321.23;106.67;;;;;;;5.29;83.51;99525.25;342347;28;810;-72
2022/04/20 00:17:15;;;;;;;322.52;107.45;;;;;;;5.30;83.08;99525.22;344229;28;1875;-72
2022/04/20 00:17:25;;;;;;;321.37;106.17;;;;;;;5.32;83.58;99525.19;343250;28;1039;-72
2022/04/20 00:17:36;;;;;;;321.83;107.13;;;;;;;5.33;83.67;99526.91;342197;28;1450;-72
2022/04/20 00:17:46;;;;;;;321.37;106.83;;;;;;;5.33;83.48;99529.50;339554;29;1296;-72
2022/04/20 00:17:56;;;;;;;321.50;106.82;;;;;;;5.33;83.24;99524.31;339707;29;1284;-72
2022/04/20 00:18:07;;;;;;;322.03;106.70;;;;;;;5.33;83.56;99526.91;339539;29;4014;-72
2022/04/20 00:18:17;;;;;;;321.08;106.13;;;;;;;5.32;83.12;99526.03;338977;28;5745;-72
2022/04/20 00:18:28;;;;;;;320.93;105.43;;;;;;;5.34;83.51;99524.28;343098;28;3372;-72
2022/04/20 00:18:38;;;;;;;325.95;108.85;;;;;;;5.36;83.08;99532.03;343401;28;1832;-72
2022/04/20 00:18:48;;;;;;;326.60;108.80;;;;;;;5.34;83.41;99524.28;342131;28;3753;-72
2022/04/20 00:18:59;;;;;;;326.15;109.10;;;;;;;5.36;83.38;99532.03;339611;29;1214;-72
2022/04/20 00:19:09;;;;;;;323.53;107.43;;;;;;;5.35;83.55;99527.72;339676;29;1434;-72
2022/04/20 00:19:20;;;;;;;322.88;106.22;;;;;;;5.33;83.67;99532.09;342915;28;1332;-72
2022/04/20 00:19:30;;;;;;;321.93;104.67;;;;;;;5.33;83.42;99532.09;341425;29;912;-72
2022/04/20 00:19:40;;;;;;;318.13;103.22;;;;;;;5.33;83.50;99532.09;342367;28;1011;-72
2022/04/20 00:19:51;;;;;;;317.87;104.73;;;;;;;5.34;83.93;99533.78;343503;28;930;-72
2022/04/20 00:20:01;;;;;;;321.33;107.63;;;;;;;5.32;83.35;99528.63;341423;28;1307;-72
2022/04/20 00:20:13;;;;;;;322.73;108.38;;;;;;;5.32;83.33;99526.03;340918;28;1323;-72
2022/04/20 00:20:23;;;;;;;323.75;108.10;;;;;;;5.31;83.20;99532.13;345001;28;1277;-72
2022/04/20 00:20:33;;;;;;;321.17;105.67;;;;;;;5.32;83.17;99525.19;343585;28;1191;-72
2022/04/20 00:20:44;;;;;;;320.87;106.03;;;;;;;5.31;83.31;99526.94;342207;28;1149;-72
2022/04/20 00:20:54;;;;;;;321.75;106.78;;;;;;;5.30;83.33;99532.16;342309;28;884;-72
2022/04/20 00:21:05;;;;;;;322.80;107.73;;;;;;;5.32;83.70;99530.38;343574;28;1274;-72
2022/04/20 00:21:15;;;;;;;322.60;107.83;;;;;;;5.32;83.55;99535.56;345052;28;888;-72
2022/04/20 00:21:26;;;;;;;321.83;107.87;;;;;;;5.30;83.35;99529.56;342441;28;1559;-72
2022/04/20 00:21:36;;;;;;;321.98;109.38;;;;;;;5.31;83.37;99533.88;342491;28;1683;-72
2022/04/20 00:21:47;;;;;;;324.48;110.63;;;;;;;5.29;83.36;99531.28;343480;28;1237;-72
2022/04/20 00:21:57;;;;;;;324.17;109.33;;;;;;;5.28;83.48;99523.53;345074;28;1329;-72
2022/04/20 00:22:08;;;;;;;322.70;107.15;;;;;;;5.29;83.15;99530.44;342966;28;2150;-72
2022/04/20 00:22:18;;;;;;;320.43;106.93;;;;;;;5.28;83.31;99524.41;340888;29;1013;-72
2022/04/20 00:22:29;;;;;;;321.88;107.60;;;;;;;5.29;83.33;99531.28;338313;29;1231;-72
2022/04/20 00:22:40;;;;;;;322.27;107.78;;;;;;;5.28;83.37;99532.19;342203;28;1521;-72
2022/04/20 00:22:50;;;;;;;322.55;107.38;;;;;;;5.28;83.53;99523.53;343630;28;1227;-72
2022/04/20 00:23:01;;;;;;;322.27;107.50;;;;;;;5.25;83.50;99534.84;342301;28;920;-72
2022/04/20 00:23:11;;;;;;;321.90;107.17;;;;;;;5.24;83.42;99529.69;340159;29;1406;-72
2022/04/20 00:23:21;;;;;;;321.45;105.68;;;;;;;5.23;83.55;99526.22;342267;28;2082;-72
2022/04/20 00:23:32;;;;;;;319.73;104.53;;;;;;;5.24;83.58;99527.09;342478;28;872;-72
2022/04/20 00:23:42;;;;;;;319.67;105.40;;;;;;;5.26;83.60;99527.91;340993;29;1232;-72
2022/04/20 00:23:54;;;;;;;319.93;106.03;;;;;;;5.26;83.53;99527.91;340919;29;1292;-72
2022/04/20 00:24:04;;;;;;;321.63;107.10;;;;;;;5.26;83.31;99527.91;341083;29;1384;-72
2022/04/20 00:24:15;;;;;;;320.10;105.97;;;;;;;5.28;83.54;99526.13;344483;28;1301;-72
2022/04/20 00:24:25;;;;;;;320.43;106.03;;;;;;;5.29;83.42;99527.84;343673;28;1177;-72
2022/04/20 00:24:35;;;;;;;320.80;105.87;;;;;;;5.30;83.38;99532.16;339634;29;1300;-72
2022/04/20 00:24:46;;;;;;;321.80;107.00;;;;;;;5.29;83.69;99530.44;342465;28;952;-72
2022/04/20 00:24:56;;;;;;;320.67;106.23;;;;;;;5.30;83.69;99526.97;342252;28;1628;-71
2022/04/20 00:25:07;;;;;;;318.90;105.35;;;;;;;5.30;83.40;99533.00;339813;29;1375;-71
2022/04/20 00:25:17;;;;;;;317.10;103.55;;;;;;;5.29;83.41;99533.88;342560;28;1332;-71
2022/04/20 00:25:28;;;;;;;316.93;104.00;;;;;;;5.25;83.43;99534.84;343789;28;1251;-71
2022/04/20 00:25:38;;;;;;;316.60;104.10;;;;;;;5.20;83.60;99528.88;343862;28;1113;-72
2022/04/20 00:25:49;;;;;;;318.67;106.27;;;;;;;5.22;83.73;99528.84;342168;28;1328;-72
2022/04/20 00:25:59;;;;;;;320.93;106.77;;;;;;;5.21;83.76;99533.19;342375;28;984;-72
2022/04/20 00:26:09;;;;;;;324.10;108.03;;;;;;;5.18;83.57;99532.44;342338;28;1282;-72
2022/04/20 00:26:20;;;;;;;323.13;106.20;;;;;;;5.20;83.64;99528.06;342207;28;1232;-72
2022/04/20 00:26:30;;;;;;;323.27;107.43;;;;;;;5.23;83.77;99527.97;341071;29;1013;-72
2022/04/20 00:26:40;;;;;;;324.30;109.10;;;;;;;5.25;83.68;99531.38;340868;29;1165;-72
2022/04/20 00:26:51;;;;;;;325.10;110.25;;;;;;;5.23;83.77;99521.03;341537;28;2063;-72
2022/04/20 00:27:01;;;;;;;324.23;109.73;;;;;;;5.25;83.95;99528.78;340876;29;1911;-72
2022/04/20 00:27:12;;;;;;;323.13;107.85;;;;;;;5.26;83.57;99530.50;340500;28;1878;-72
2022/04/20 00:27:22;;;;;;;321.53;106.97;;;;;;;5.27;83.68;99529.63;340442;28;4905;-72
2022/04/20 00:27:35;;;;;;;319.00;106.50;;;;;;;5.28;83.61;99526.13;341883;28;3634;-72
2022/04/20 00:27:46;;;;;;;320.40;108.57;;;;;;;5.31;83.55;99523.47;340862;29;898;-72
2022/04/20 00:27:56;;;;;;;324.15;109.00;;;;;;;5.30;83.24;99532.16;343808;28;2067;-72
2022/04/20 00:28:07;;;;;;;327.87;109.60;;;;;;;5.31;83.21;99531.25;342011;28;3794;-72
2022/04/20 00:28:17;;;;;;;324.40;108.13;;;;;;;5.31;83.48;99533.88;340916;28;1296;-72
2022/04/20 00:28:27;;;;;;;324.55;109.18;;;;;;;5.32;83.62;99530.38;344846;28;1134;-72
2022/04/20 00:28:38;;;;;;;326.87;110.50;;;;;;;5.32;83.49;99530.38;345076;28;946;-72
2022/04/20 00:28:48;;;;;;;326.85;109.32;;;;;;;5.32;83.62;99525.19;342310;28;941;-72
2022/04/20 00:28:59;;;;;;;324.30;107.87;;;;;;;5.32;83.38;99530.38;341279;28;1178;-72
2022/04/20 00:29:09;;;;;;;320.27;105.22;;;;;;;5.32;83.83;99530.38;344353;28;1453;-72
2022/04/20 00:29:19;;;;;;;319.83;104.43;;;;;;;5.28;83.52;99534.78;343683;28;845;-72
2022/04/20 00:29:30;;;;;;;321.63;105.75;;;;;;;5.26;83.76;99533.09;342241;28;1350;-72
2022/04/20 00:29:40;;;;;;;322.93;107.30;;;;;;;5.26;83.79;99535.69;341009;29;804;-72
2022/04/20 00:29:51;;;;;;;321.42;106.40;;;;;;;5.24;83.50;99521.91;344979;28;1299;-72
2022/04/20 00:30:05;;;;;;;322.70;107.13;;;;;;;5.24;83.54;99535.72;343655;28;1171;-72
2022/04/20 00:30:15;;;;;;;324.73;107.18;;;;;;;5.23;83.80;99530.56;342259;28;1063;-72
2022/04/20 00:30:25;;;;;;;325.15;108.00;;;;;;;5.19;83.54;99529.81;341028;28;1424;-72
2022/04/20 00:30:36;;;;;;;322.43;106.37;;;;;;;5.21;83.73;99537.53;342050;28;1367;-72
2022/04/20 00:30:46;;;;;;;321.73;106.00;;;;;;;5.20;83.66;99535.84;342276;28;1711;-72
2022/04/20 00:30:57;;;;;;;321.37;104.97;;;;;;;5.17;83.61;99538.50;341013;29;803;-72
2022/04/20 00:31:08;;;;;;;321.60;105.87;;;;;;;5.14;83.78;99538.56;339653;29;928;-72
2022/04/20 00:31:21;;;;;;;320.60;105.78;;;;;;;5.12;83.84;99541.19;341044;29;1451;-72
2022/04/20 00:31:31;;;;;;;327.23;108.13;;;;;;;5.10;83.84;99542.97;343659;28;884;-72
2022/04/20 00:31:42;;;;;;;328.47;107.67;;;;;;;5.07;83.99;99539.56;340538;28;2280;-72
2022/04/20 00:31:52;;;;;;;331.13;109.18;;;;;;;5.07;84.13;99535.22;340933;29;909;-72
2022/04/20 00:32:03;;;;;;;326.17;108.77;;;;;;;5.09;84.14;99537.78;338396;29;1013;-72
2022/04/20 00:32:13;;;;;;;327.88;111.15;;;;;;;5.11;83.70;99543.81;340586;29;1894;-72
2022/04/20 00:32:24;;;;;;;327.40;110.97;;;;;;;5.11;83.92;99542.06;342216;28;1209;-72
2022/04/20 00:32:34;;;;;;;326.27;111.43;;;;;;;5.11;83.94;99546.41;342336;28;1221;-72
2022/04/20 00:32:45;;;;;;;324.98;111.93;;;;;;;5.12;83.87;99542.94;343052;28;904;-72
2022/04/20 00:32:55;;;;;;;326.13;112.73;;;;;;;5.12;84.22;99542.94;343720;28;883;-72
2022/04/20 00:33:05;;;;;;;327.55;114.32;;;;;;;5.10;83.89;99542.97;340959;28;1217;-72
2022/04/20 00:33:16;;;;;;;329.43;115.37;;;;;;;5.08;84.16;99536.09;341418;28;1178;-72
2022/04/20 00:33:26;;;;;;;329.13;116.83;;;;;;;5.04;84.45;99544.81;346290;28;1480;-72
2022/04/20 00:33:37;;;;;;;328.97;116.73;;;;;;;5.04;84.55;99534.44;344981;28;1167;-72
2022/04/20 00:33:48;;;;;;;327.30;115.85;;;;;;;5.06;84.33;99543.91;344540;28;930;-72
2022/04/20 00:33:58;;;;;;;323.23;110.60;;;;;;;5.08;84.36;99542.13;343750;28;967;-72
2022/04/20 00:34:08;;;;;;;320.48;105.00;;;;;;;5.10;84.42;99539.50;340988;28;1482;-72
2022/04/20 00:34:19;;;;;;;319.57;102.23;;;;;;;5.10;84.09;99540.38;343520;28;1276;-72
2022/04/20 00:34:29;;;;;;;318.80;100.68;;;;;;;5.10;83.91;99545.56;342345;28;802;-72
2022/04/20 00:34:40;;;;;;;315.13;98.13;;;;;;;5.13;84.27;99547.22;342310;28;1320;-72
2022/04/20 00:34:50;;;;;;;314.30;95.45;;;;;;;5.13;84.30;99539.44;342126;28;892;-72
2022/04/20 00:35:00;;;;;;;315.23;96.07;;;;;;;5.14;84.04;99542.00;341047;29;1300;-72
2022/04/20 00:35:11;;;;;;;316.98;97.15;;;;;;;5.15;84.15;99542.88;343741;28;968;-72
2022/04/20 00:35:21;;;;;;;316.40;98.20;;;;;;;5.16;83.85;99550.63;342510;28;846;-72
2022/04/20 00:35:32;;;;;;;316.88;98.43;;;;;;;5.17;84.02;99546.28;341030;28;1138;-72
2022/04/20 00:35:43;;;;;;;317.30;100.13;;;;;;;5.18;84.16;99542.81;340047;29;1475;-72
2022/04/20 00:35:53;;;;;;;319.60;102.72;;;;;;;5.18;83.81;99545.41;339619;28;1426;-72
2022/04/20 00:36:04;;;;;;;318.73;103.55;;;;;;;5.19;84.01;99540.19;340975;29;1318;-72
2022/04/20 00:36:14;;;;;;;317.83;102.18;;;;;;;5.18;83.85;99546.25;342181;28;1375;-72
2022/04/20 00:36:25;;;;;;;317.00;100.83;;;;;;;5.21;84.12;99537.53;343517;28;1702;-72
2022/04/20 00:36:35;;;;;;;318.58;101.40;;;;;;;5.21;83.93;99547.91;340078;28;5204;-72
2022/04/20 00:36:50;;;;;;;319.50;101.73;;;;;;;5.22;83.77;99547.88;342555;28;5628;-73
2022/04/20 00:37:00;;;;;;;318.40;99.85;;;;;;;5.23;83.89;99551.31;342680;28;1614;-72
2022/04/20 00:37:11;;;;;;;317.05;98.70;;;;;;;5.21;84.11;99545.31;340600;28;3619;-72
2022/04/20 00:37:21;;;;;;;318.13;100.10;;;;;;;5.21;83.88;99547.91;341872;28;1280;-72
2022/04/20 00:37:33;;;;;;;318.57;101.93;;;;;;;5.22;83.99;99549.59;344360;28;2619;-72
2022/04/20 00:37:43;;;;;;;319.73;103.50;;;;;;;5.19;83.83;99541.91;342995;28;849;-72
2022/04/20 00:37:54;;;;;;;319.67;103.18;;;;;;;5.17;83.87;99547.13;343674;28;1420;-72
2022/04/20 00:38:04;;;;;;;319.60;102.83;;;;;;;5.16;84.23;99548.03;341237;28;1379;-72
2022/04/20 00:38:16;;;;;;;317.88;102.38;;;;;;;5.14;83.98;99547.19;341017;28;1219;-72
2022/04/20 00:38:26;;;;;;;317.40;101.00;;;;;;;5.14;84.01;99546.34;342057;28;2089;-72
2022/04/20 00:38:37;;;;;;;317.00;99.73;;;;;;;5.12;84.48;99550.72;340212;29;1469;-72
2022/04/20 00:38:47;;;;;;;317.42;99.18;;;;;;;5.11;84.65;99551.59;343526;28;1265;-72
2022/04/20 00:38:58;;;;;;;319.00;101.30;;;;;;;5.12;84.43;99543.78;343654;28;1370;-72
2022/04/20 00:39:09;;;;;;;318.95;101.82;;;;;;;5.13;84.14;99545.50;343644;28;870;-72
2022/04/20 00:39:19;;;;;;;318.53;102.63;;;;;;;5.14;84.63;99548.94;342909;28;1220;-72
2022/04/20 00:39:30;;;;;;;318.40;101.90;;;;;;;5.11;84.54;99546.41;343687;28;1085;-72
2022/04/20 00:39:40;;;;;;;320.55;102.25;;;;;;;5.07;84.67;99544.75;342372;28;1149;-72
2022/04/20 00:39:51;;;;;;;321.63;102.90;;;;;;;5.10;84.48;99547.28;342324;28;911;-72
2022/04/20 00:40:02;;;;;;;320.75;101.93;;;;;;;5.10;84.38;99542.09;340444;29;1464;-72
2022/04/20 00:40:13;;;;;;;319.05;102.03;;;;;;;5.11;84.23;99551.59;339657;29;1033;-72
2022/04/20 00:40:23;;;;;;;316.60;99.50;;;;;;;5.08;84.49;99544.72;345010;28;1362;-72
2022/04/20 00:40:34;;;;;;;317.50;100.33;;;;;;;5.10;84.74;99544.69;345090;28;1347;-72
2022/04/20 00:40:53;;;;;;;316.77;99.95;;;;;;;5.11;84.50;99546.41;343891;28;960;-72
2022/04/20 00:41:03;;;;;;;316.45;99.57;;;;;;;5.12;84.59;99545.53;343586;28;1081;-72
2022/04/20 00:41:14;;;;;;;317.75;100.13;;;;;;;5.11;84.66;99543.81;340826;28;1922;-72
2022/04/20 00:41:24;;;;;;;320.67;100.77;;;;;;;5.05;84.57;99541.34;343239;28;2134;-72
2022/04/20 00:41:34;;;;;;;319.90;101.20;;;;;;;5.05;84.58;99549.13;343490;28;1544;-72
2022/04/20 00:41:45;;;;;;;318.17;101.67;;;;;;;5.06;84.81;99549.09;341028;29;1023;-72
2022/04/20 00:41:55;;;;;;;316.58;101.35;;;;;;;5.06;84.77;99548.22;338308;29;803;-72
2022/04/20 00:42:06;;;;;;;317.53;102.93;;;;;;;5.07;84.77;99547.34;343564;28;1171;-72
2022/04/20 00:42:16;;;;;;;321.10;103.75;;;;;;;5.05;84.73;99543.94;343047;28;2184;-72
2022/04/20 00:42:27;;;;;;;321.50;103.80;;;;;;;5.05;84.65;99546.53;343013;28;819;-73
2022/04/20 00:42:39;;;;;;;320.55;101.60;;;;;;;5.04;84.60;99550.00;340945;29;1511;-72
2022/04/20 00:42:49;;;;;;;317.90;101.07;;;;;;;5.07;85.04;99549.94;343627;28;921;-72
2022/04/20 00:42:59;;;;;;;318.23;101.90;;;;;;;5.07;84.67;99555.97;342363;28;857;-72
2022/04/20 00:43:10;;;;;;;319.80;102.03;;;;;;;5.09;84.60;99548.19;341544;28;1446;-72
2022/04/20 00:43:20;;;;;;;320.30;102.07;;;;;;;5.09;84.23;99545.56;339880;29;1090;-72
2022/04/20 00:43:31;;;;;;;318.95;101.22;;;;;;;5.11;84.32;99547.25;342345;28;906;-72
2022/04/20 00:43:41;;;;;;;317.27;101.10;;;;;;;5.13;84.47;99555.00;342207;28;1277;-72
2022/04/20 00:43:52;;;;;;;318.52;100.38;;;;;;;5.12;84.60;99550.72;342235;28;1229;-72
2022/04/20 00:44:02;;;;;;;319.10;100.93;;;;;;;5.11;84.38;99552.44;340985;29;894;-72
2022/04/20 00:44:13;;;;;;;319.73;101.45;;;;;;;5.10;84.53;99544.69;342229;28;1522;-72
2022/04/20 00:44:23;;;;;;;320.85;102.95;;;;;;;5.12;84.56;99548.13;342252;28;841;-72
2022/04/20 00:44:34;;;;;;;318.77;101.97;;;;;;;5.08;84.57;99541.28;342284;28;1185;-72
2022/04/20 00:44:44;;;;;;;318.97;102.20;;;;;;;5.06;84.42;99553.41;340930;29;832;-72
2022/04/20 00:44:54;;;;;;;318.70;100.73;;;;;;;5.06;84.31;99548.22;342381;28;1516;-72
2022/04/20 00:45:09;;;;;;;321.67;101.90;;;;;;;5.09;84.41;99548.19;343610;28;892;-72
2022/04/20 00:45:20;;;;;;;319.13;99.80;;;;;;;5.09;84.24;99553.34;344888;28;990;-72
2022/04/20 00:45:31;;;;;;;319.35;99.57;;;;;;;5.11;84.46;99551.59;340933;29;1286;-72
2022/04/20 00:45:42;;;;;;;317.48;96.82;;;;;;;5.11;84.39;99551.59;339369;28;3892;-71
2022/04/20 00:45:52;;;;;;;317.85;98.50;;;;;;;5.10;84.37;99555.94;340375;28;3415;-71
2022/04/20 00:46:03;;;;;;;318.30;98.95;;;;;;;5.09;84.73;99542.97;340429;28;3440;-71
2022/04/20 00:46:14;;;;;;;321.23;102.00;;;;;;;5.09;84.26;99551.63;342766;28;1802;-71
2022/04/20 00:46:25;;;;;;;320.58;99.63;;;;;;;5.11;84.66;99546.41;343375;28;5883;-71
2022/04/20 00:46:35;;;;;;;318.08;98.72;;;;;;;5.10;84.88;99548.16;340889;29;902;-72
2022/04/20 00:46:46;;;;;;;316.38;97.40;;;;;;;5.10;84.80;99545.56;340004;29;2320;-72
2022/04/20 00:46:57;;;;;;;318.05;99.65;;;;;;;5.09;84.71;99542.97;342139;28;1434;-72
2022/04/20 00:47:07;;;;;;;319.08;98.80;;;;;;;5.11;84.42;99541.22;341846;28;2336;-72
2022/04/20 00:47:18;;;;;;;318.47;98.27;;;;;;;5.13;84.55;99550.69;341072;28;1700;-72
2022/04/20 00:47:29;;;;;;;318.98;97.47;;;;;;;5.11;84.47;99547.25;338793;28;1320;-72
2022/04/20 00:47:42;;;;;;;321.65;99.90;;;;;;;5.11;84.89;99541.22;342095;28;1330;-72
2022/04/20 00:47:53;;;;;;;322.17;100.38;;;;;;;5.11;84.39;99547.25;342257;28;1467;-72
2022/04/20 00:48:03;;;;;;;320.45;100.15;;;;;;;5.11;84.54;99543.81;342307;28;1375;-72
2022/04/20 00:48:14;;;;;;;322.50;101.50;;;;;;;5.11;84.55;99543.81;343762;28;1213;-72
2022/04/20 00:48:24;;;;;;;320.52;99.45;;;;;;;5.10;84.70;99544.69;344756;28;1904;-72
2022/04/20 00:48:36;;;;;;;318.97;97.57;;;;;;;5.12;84.52;99542.94;343781;28;1106;-72
2022/04/20 00:48:47;;;;;;;314.77;94.20;;;;;;;5.13;84.56;99544.63;342221;28;1438;-71
2022/04/20 00:48:57;;;;;;;318.40;96.63;;;;;;;5.14;84.65;99542.00;341041;29;1106;-72
2022/04/20 00:49:08;;;;;;;319.15;98.82;;;;;;;5.17;83.78;99551.47;343220;28;1528;-72
2022/04/20 00:49:18;;;;;;;320.50;100.20;;;;;;;5.17;84.19;99546.28;344732;28;1189;-72
2022/04/20 00:49:29;;;;;;;319.40;99.32;;;;;;;5.17;84.42;99541.94;342334;28;870;-72
2022/04/20 00:49:39;;;;;;;318.90;99.40;;;;;;;5.18;84.51;99546.25;343660;28;890;-72
2022/04/20 00:49:50;;;;;;;317.63;99.22;;;;;;;5.16;84.38;99544.56;340856;29;811;-72